PAVD METAR and TAF weather

Enter ICAO airport designator
Station Type Date Time Source
PAVD METAR 2022/01/29 08:56 UTC NOAA

PAVD 290856Z AUTO 10SM OVC100 M04/M04 A2945 RMK AO2 SLP971 T10441044 410061056 58022 FZRANO


Station Type Date Time Source
PAVD Decoded METAR 2022/01/29 08:56 UTC NOAA

Valdez 2, AK, United States (PAVD) 61-08N 146-16W
Jan 29, 2022 - 03:56 AM EST / 2022.01.29 0856 UTC
Visibility: 10 mile(s):0
Sky conditions: overcast
Temperature: 24.1 F (-4.4 C)
Dew Point: 24.1 F (-4.4 C)
Relative Humidity: 100%
Pressure (altimeter): 29.45 in. Hg (997 hPa)
Pressure tendency: 0.06 inches (2.2 hPa) lower than three hours ago
ob: PAVD 290856Z AUTO 10SM OVC100 M04/M04 A2945 RMK AO2 SLP971 T10441044 410061056 58022 FZRANO
cycle: 9

Station Type Date Time Source
PAVD TAF 2022/01/29 06:24 UTC NOAA

TAF PAVD 290522Z 2906/3006 VRB06KT P6SM BKN050
FM291200 08012G20KT P6SM OVC100
FM292100 VRB06KT P6SM VCSH FEW025 OVC050

Example: see airport list